Time;durP1;ratioP1;P1;durP2;ratioP2;P2;SDS_P1;SDS_P2;PMS_P1;PMS_P2;Temp;Humidity;BMP_temperature;BMP_pressure;BME280_temperature;BME280_humidity;BME280_pressure;Samples;Min_cycle;Max_cycle;Signal;HPM_P1;HPM_P2
2023/05/17 00:01:51;;;;;;;;;6.00;2.67;;;;;15.16;93.44;102232.59;5074633;28;46252;-76
2023/05/17 00:04:16;;;;;;;;;6.00;4.00;;;;;15.11;93.97;102239.59;5073258;28;45456;-77
2023/05/17 00:06:42;;;;;;;;;7.67;4.33;;;;;15.12;93.93;102240.50;5068247;28;45440;-77
2023/05/17 00:09:08;;;;;;;;;6.00;4.67;;;;;15.10;94.38;102235.16;5058813;28;45514;-75
2023/05/17 00:11:33;;;;;;;;;5.00;4.00;;;;;15.11;94.47;102241.38;5074755;28;56347;-77
2023/05/17 00:13:58;;;;;;;;;3.33;3.33;;;;;15.05;94.41;102241.28;5070318;28;45438;-76
2023/05/17 00:16:24;;;;;;;;;4.67;4.00;;;;;15.03;94.17;102243.94;5061537;28;45442;-76
2023/05/17 00:18:49;;;;;;;;;2.67;2.67;;;;;15.02;94.50;102241.22;5068483;28;45501;-77
2023/05/17 00:21:15;;;;;;;;;7.33;5.00;;;;;14.98;94.39;102240.31;5050037;28;46549;-75
2023/05/17 00:23:40;;;;;;;;;3.67;3.67;;;;;14.97;94.59;102235.88;5062808;28;65829;-77
2023/05/17 00:26:05;;;;;;;;;4.00;4.00;;;;;14.96;94.91;102242.03;5065966;28;58934;-75
2023/05/17 00:28:30;;;;;;;;;4.00;2.67;;;;;14.94;94.91;102239.34;5073988;27;60711;-75
2023/05/17 00:30:56;;;;;;;;;3.00;3.00;;;;;14.92;94.58;102241.09;5071471;28;66795;-75
2023/05/17 00:33:21;;;;;;;;;4.00;3.00;;;;;14.94;94.88;102238.47;5073895;28;66665;-75
2023/05/17 00:35:46;;;;;;;;;6.00;3.00;;;;;14.90;95.28;102237.50;5075266;28;61393;-77
2023/05/17 00:38:12;;;;;;;;;4.00;2.33;;;;;14.91;95.17;102233.09;5068850;27;62359;-75
2023/05/17 00:40:37;;;;;;;;;3.33;3.33;;;;;14.87;95.39;102239.25;5077240;27;66648;-77
2023/05/17 00:43:02;;;;;;;;;4.67;3.00;;;;;14.87;95.68;102237.47;5067217;27;67823;-76
2023/05/17 00:45:28;;;;;;;;;3.67;3.67;;;;;14.86;95.31;102245.41;5079961;27;61125;-75
2023/05/17 00:47:53;;;;;;;;;3.33;3.33;;;;;14.85;95.60;102244.53;5078043;27;60396;-76
2023/05/17 00:50:18;;;;;;;;;3.00;3.00;;;;;14.83;95.48;102242.72;5073930;28;71425;-75
2023/05/17 00:52:45;;;;;;;;;4.00;3.00;;;;;14.81;95.96;102234.72;5071503;28;68574;-75
2023/05/17 00:55:10;;;;;;;;;6.67;4.00;;;;;14.80;95.55;102243.53;5076811;28;45350;-76
2023/05/17 00:57:35;;;;;;;;;6.33;4.00;;;;;14.77;95.75;102237.31;5048621;28;56786;-74
2023/05/17 01:00:02;;;;;;;;;3.67;2.00;;;;;14.76;96.26;102238.19;5050189;28;70119;-75
2023/05/17 01:02:27;;;;;;;;;5.00;3.67;;;;;14.75;96.21;102234.59;5063123;28;45550;-74
2023/05/17 01:04:53;;;;;;;;;5.00;4.00;;;;;14.74;96.90;102234.59;5070705;28;64216;-75
2023/05/17 01:07:18;;;;;;;;;5.00;4.00;;;;;14.73;96.55;102232.81;5056513;27;62950;-77
2023/05/17 01:09:44;;;;;;;;;4.67;3.00;;;;;14.72;96.76;102228.34;5084859;27;45989;-75
2023/05/17 01:12:18;;;;;;;;;3.33;3.33;;;;;14.72;97.73;102233.69;5078147;27;45342;-74
2023/05/17 01:14:47;;;;;;;;;4.67;3.33;;;;;14.70;98.12;102235.41;5074595;27;45440;-75
2023/05/17 01:17:22;;;;;;;;;4.67;4.67;;;;;14.67;98.24;102220.31;5051302;28;45244;-75
2023/05/17 01:20:10;;;;;;;;;5.00;2.00;;;;;14.64;98.04;102226.44;5057111;28;46443;-74
2023/05/17 01:22:46;;;;;;;;;3.33;3.00;;;;;14.63;97.74;102222.00;5069007;28;45286;-75
2023/05/17 01:25:41;;;;;;;;;4.33;4.33;;;;;14.60;97.63;102232.59;5066986;28;45399;-77
2023/05/17 01:28:07;;;;;;;;;6.00;5.00;;;;;14.55;98.22;102231.63;5072849;27;45371;-76
2023/05/17 01:30:33;;;;;;;;;3.33;3.33;;;;;14.56;98.79;102228.09;5058801;28;47760;-75
2023/05/17 01:32:59;;;;;;;;;4.00;2.33;;;;;14.56;99.53;102238.72;5051121;28;45561;-75
2023/05/17 01:35:25;;;;;;;;;4.00;3.67;;;;;14.52;99.53;102228.91;5072605;28;54241;-75
2023/05/17 01:37:53;;;;;;;;;7.00;4.67;;;;;14.52;99.58;102234.22;5066680;28;45521;-75
2023/05/17 01:40:19;;;;;;;;;6.00;4.00;;;;;14.48;100.00;102226.16;5076872;27;46477;-75
2023/05/17 01:42:50;;;;;;;;;5.33;5.00;;;;;14.47;100.00;102224.34;5071632;27;45522;-76
2023/05/17 01:45:45;;;;;;;;;6.33;4.00;;;;;14.45;100.00;102221.69;5067983;28;45419;-74
2023/05/17 01:48:20;;;;;;;;;5.67;3.00;;;;;14.42;100.00;102224.25;5049172;28;45294;-75
2023/05/17 01:50:48;;;;;;;;;6.67;5.00;;;;;14.40;100.00;102239.31;5060335;28;47585;-75
2023/05/17 01:53:23;;;;;;;;;8.00;5.00;;;;;14.38;100.00;102233.03;5069540;28;45451;-75
2023/05/17 01:55:54;;;;;;;;;6.00;6.00;;;;;14.35;100.00;102223.28;5073892;27;45423;-75
2023/05/17 01:58:21;;;;;;;;;4.00;4.00;;;;;14.37;100.00;102225.94;5061427;28;45300;-75
2023/05/17 02:00:48;;;;;;;;;6.33;5.00;;;;;14.37;100.00;102217.97;5080857;27;45420;-75
2023/05/17 02:03:17;;;;;;;;;12.00;6.00;;;;;14.36;100.00;102229.47;5059789;28;45521;-75
2023/05/17 02:05:43;;;;;;;;;7.00;6.00;;;;;14.33;100.00;102219.69;5076627;27;45317;-74
2023/05/17 02:08:08;;;;;;;;;6.00;6.00;;;;;14.34;100.00;102225.91;5076330;28;62717;-75
2023/05/17 02:10:33;;;;;;;;;7.33;6.33;;;;;14.33;100.00;102229.44;5066755;27;69252;-75
2023/05/17 02:12:59;;;;;;;;;11.67;8.00;;;;;14.34;100.00;102229.47;5081327;27;47975;-75
2023/05/17 02:15:24;;;;;;;;;10.67;6.00;;;;;14.36;100.00;102224.16;5093105;27;45473;-75
2023/05/17 02:17:49;;;;;;;;;9.67;8.00;;;;;14.38;100.00;102226.00;5076850;27;60044;-75
2023/05/17 02:20:15;;;;;;;;;8.00;6.67;;;;;14.42;100.00;102227.81;5076674;28;46155;-76
2023/05/17 02:22:40;;;;;;;;;7.00;7.00;;;;;14.48;100.00;102224.41;5078554;28;45418;-76
2023/05/17 02:25:06;;;;;;;;;7.33;7.33;;;;;14.53;100.00;102229.81;5072740;28;63714;-75
2023/05/17 02:27:32;;;;;;;;;9.67;9.67;;;;;14.57;100.00;102232.53;5077996;27;45448;-77
2023/05/17 02:29:57;;;;;;;;;6.33;5.00;;;;;14.62;100.00;102235.28;5062806;27;46431;-75
2023/05/17 02:32:22;;;;;;;;;11.67;11.67;;;;;14.64;100.00;102237.09;5091441;27;63276;-75
2023/05/17 02:34:48;;;;;;;;;8.00;8.00;;;;;14.64;100.00;102234.41;5082175;27;64955;-75
2023/05/17 02:37:13;;;;;;;;;12.00;9.67;;;;;14.68;100.00;102238.94;5089288;27;45628;-75
2023/05/17 02:39:39;;;;;;;;;11.33;9.00;;;;;14.70;100.00;102243.38;5082620;27;69064;-74
2023/05/17 02:42:04;;;;;;;;;8.67;8.67;;;;;14.71;100.00;102246.06;5074171;27;45331;-76
2023/05/17 02:44:30;;;;;;;;;12.67;9.00;;;;;14.72;100.00;102249.63;5070625;28;45284;-76
2023/05/17 02:46:55;;;;;;;;;13.67;9.33;;;;;14.70;100.00;102248.69;5068654;28;54003;-75
2023/05/17 02:49:20;;;;;;;;;14.33;8.00;;;;;14.68;100.00;102252.22;5057432;28;68836;-76
2023/05/17 02:51:46;;;;;;;;;12.00;11.00;;;;;14.65;100.00;102249.53;5079913;27;45711;-77
2023/05/17 02:54:11;;;;;;;;;8.67;8.67;;;;;14.63;100.00;102253.91;5081548;27;62082;-75
2023/05/17 02:56:36;;;;;;;;;9.67;9.00;;;;;14.58;100.00;102250.28;5078228;27;49477;-76
2023/05/17 02:59:02;;;;;;;;;9.33;8.33;;;;;14.55;100.00;102252.00;5076929;27;70410;-75
2023/05/17 03:01:27;;;;;;;;;17.67;10.33;;;;;14.50;100.00;102249.25;5078074;27;45399;-75
2023/05/17 03:03:52;;;;;;;;;15.33;13.67;;;;;14.46;100.00;102258.00;5076595;27;63923;-75
2023/05/17 03:06:18;;;;;;;;;19.67;12.67;;;;;14.42;100.00;102243.75;5084999;27;64551;-76
2023/05/17 03:08:43;;;;;;;;;13.00;10.33;;;;;14.41;100.00;102241.09;5085200;27;66864;-75
2023/05/17 03:11:09;;;;;;;;;13.00;12.33;;;;;14.38;100.00;102252.56;5078453;27;65793;-75
2023/05/17 03:13:34;;;;;;;;;16.00;13.33;;;;;14.34;100.00;102248.06;5084560;27;45951;-76
2023/05/17 03:15:59;;;;;;;;;16.33;12.00;;;;;14.33;100.00;102248.03;5069964;27;62367;-76
2023/05/17 03:18:24;;;;;;;;;14.33;12.33;;;;;14.29;100.00;102249.72;5090903;27;70426;-75
2023/05/17 03:20:50;;;;;;;;;16.00;11.67;;;;;14.26;100.00;102244.34;5079611;27;64737;-77
2023/05/17 03:23:15;;;;;;;;;12.67;12.67;;;;;14.25;100.00;102252.31;5078162;27;45232;-76
2023/05/17 03:25:40;;;;;;;;;13.75;12.00;;;;;14.21;100.00;102246.03;5080055;27;61441;-76
2023/05/17 03:28:06;;;;;;;;;13.00;13.00;;;;;14.19;100.00;102238.91;5077051;27;68961;-76
2023/05/17 03:30:31;;;;;;;;;13.00;12.00;;;;;14.14;100.00;102247.69;5075413;27;47091;-75
2023/05/17 03:32:57;;;;;;;;;21.67;13.33;;;;;14.12;100.00;102254.75;5071857;28;46290;-74
2023/05/17 03:35:22;;;;;;;;;11.00;11.00;;;;;14.09;100.00;102245.81;5072218;28;45561;-76
2023/05/17 03:37:47;;;;;;;;;15.00;12.33;;;;;14.07;100.00;102253.75;5069662;28;46274;-75
2023/05/17 03:40:13;;;;;;;;;19.00;14.67;;;;;14.07;100.00;102261.72;5073889;28;67369;-75
2023/05/17 03:42:38;;;;;;;;;16.00;11.00;;;;;14.04;100.00;102259.00;5069262;28;45354;-76
2023/05/17 03:45:04;;;;;;;;;16.00;11.67;;;;;14.03;100.00;102262.53;5074165;28;52921;-75
2023/05/17 03:47:29;;;;;;;;;19.00;14.33;;;;;14.02;100.00;102262.50;5069926;28;46239;-75
2023/05/17 03:49:54;;;;;;;;;17.33;13.67;;;;;13.98;100.00;102263.28;5073014;28;45481;-75
2023/05/17 03:52:20;;;;;;;;;14.00;10.33;;;;;13.98;100.00;102263.28;5077133;28;51398;-75
2023/05/17 03:54:45;;;;;;;;;16.67;12.33;;;;;13.97;100.00;102267.72;5076222;28;60704;-75
2023/05/17 03:57:10;;;;;;;;;14.33;11.33;;;;;13.95;100.00;102268.53;5070492;28;52447;-77
2023/05/17 03:59:36;;;;;;;;;13.25;12.25;;;;;13.94;100.00;102270.28;5055075;28;45597;-75
2023/05/17 04:02:01;;;;;;;;;16.67;15.00;;;;;13.96;100.00;102268.59;5087244;27;45334;-76
2023/05/17 04:04:27;;;;;;;;;13.00;10.00;;;;;13.97;100.00;102265.06;5075331;28;45406;-75
2023/05/17 04:06:52;;;;;;;;;14.33;12.33;;;;;14.01;100.00;102280.19;5060630;28;47136;-76
2023/05/17 04:09:18;;;;;;;;;13.00;13.00;;;;;14.02;100.00;102287.28;5068957;27;64865;-77
2023/05/17 04:11:44;;;;;;;;;12.33;11.33;;;;;14.04;100.00;102287.31;5081868;27;45330;-75
2023/05/17 04:14:09;;;;;;;;;13.00;10.00;;;;;14.04;100.00;102285.56;5063228;28;45597;-75
2023/05/17 04:16:35;;;;;;;;;14.33;12.00;;;;;14.01;100.00;102281.94;5072696;28;46487;-75
2023/05/17 04:19:00;;;;;;;;;13.00;12.00;;;;;14.01;100.00;102295.22;5063471;28;45366;-74
2023/05/17 04:21:26;;;;;;;;;14.00;11.00;;;;;14.00;100.00;102306.69;5084186;27;45324;-75
2023/05/17 04:23:51;;;;;;;;;13.33;10.00;;;;;13.98;100.00;102301.38;5071142;28;45243;-76
2023/05/17 04:26:16;;;;;;;;;10.00;9.33;;;;;13.96;100.00;102307.53;5071655;28;46617;-77
2023/05/17 04:28:42;;;;;;;;;13.67;8.67;;;;;13.93;100.00;102311.00;5069580;28;63962;-75
2023/05/17 04:31:08;;;;;;;;;13.33;9.67;;;;;13.93;100.00;102312.75;5076186;28;45968;-76
2023/05/17 04:33:33;;;;;;;;;14.00;9.75;;;;;13.92;100.00;102317.19;5067210;28;45486;-75
2023/05/17 04:35:59;;;;;;;;;13.67;11.67;;;;;13.91;100.00;102318.03;5075514;28;46197;-76
2023/05/17 04:38:24;;;;;;;;;13.33;11.00;;;;;13.86;100.00;102319.72;5071064;28;66739;-76
2023/05/17 04:40:50;;;;;;;;;14.33;13.33;;;;;13.85;100.00;102321.47;5066346;28;46457;-77
2023/05/17 04:43:15;;;;;;;;;13.00;11.33;;;;;13.85;100.00;102323.22;5073578;28;45683;-75
2023/05/17 04:45:40;;;;;;;;;16.67;13.00;;;;;13.82;100.00;102325.81;5066054;28;45539;-74
2023/05/17 04:48:06;;;;;;;;;16.00;13.00;;;;;13.82;100.00;102325.81;5072060;27;66416;-76
2023/05/17 04:50:31;;;;;;;;;13.67;13.67;;;;;13.81;100.00;102324.03;5069697;28;62210;-75
2023/05/17 04:52:56;;;;;;;;;14.00;11.00;;;;;13.81;100.00;102329.34;5070091;28;45457;-75
2023/05/17 04:55:22;;;;;;;;;12.67;12.67;;;;;13.80;100.00;102332.84;5063631;27;46484;-75
2023/05/17 04:57:47;;;;;;;;;13.00;10.67;;;;;13.80;100.00;102339.06;5050135;28;53441;-75
2023/05/17 05:00:14;;;;;;;;;13.00;11.67;;;;;13.78;100.00;102335.44;5070626;28;47066;-74
2023/05/17 05:02:39;;;;;;;;;14.00;12.33;;;;;13.79;100.00;102342.53;5067635;27;45280;-76
2023/05/17 05:05:05;;;;;;;;;12.00;10.67;;;;;13.79;100.00;102339.00;5070653;27;46317;-75
2023/05/17 05:07:31;;;;;;;;;20.50;13.75;;;;;13.80;100.00;102338.16;5059654;28;45653;-73
2023/05/17 05:09:56;;;;;;;;;16.33;13.33;;;;;13.79;100.00;102342.53;5059444;27;45871;-77
2023/05/17 05:12:21;;;;;;;;;13.00;13.00;;;;;13.80;100.00;102354.09;5066069;27;57079;-74
2023/05/17 05:14:47;;;;;;;;;12.33;10.67;;;;;13.81;100.00;102362.09;5061497;28;45501;-74
2023/05/17 05:17:12;;;;;;;;;19.75;13.25;;;;;13.81;100.00;102354.13;5065211;28;68324;-76
2023/05/17 05:19:37;;;;;;;;;14.67;12.00;;;;;13.82;100.00;102362.97;5074088;28;45769;-75
2023/05/17 05:22:03;;;;;;;;;15.00;13.00;;;;;13.83;100.00;102362.09;5075976;27;45436;-77
2023/05/17 05:24:28;;;;;;;;;15.33;15.33;;;;;13.81;100.00;102356.78;5061710;28;46488;-76
2023/05/17 05:26:54;;;;;;;;;12.67;7.33;;;;;13.82;100.00;102366.53;5066624;28;60220;-77
2023/05/17 05:29:19;;;;;;;;;13.00;12.33;;;;;13.84;100.00;102361.25;5064570;28;53817;-76
2023/05/17 05:31:45;;;;;;;;;17.00;12.67;;;;;13.83;100.00;102362.09;5060259;28;45466;-76
2023/05/17 05:34:10;;;;;;;;;12.33;11.67;;;;;13.82;100.00;102366.53;5067493;27;46570;-76
2023/05/17 05:36:36;;;;;;;;;21.00;15.67;;;;;13.84;100.00;102369.19;5076621;27;60689;-76
2023/05/17 05:39:01;;;;;;;;;18.00;13.67;;;;;13.83;100.00;102372.72;5078405;27;51502;-77
2023/05/17 05:41:27;;;;;;;;;18.67;12.00;;;;;13.86;100.00;102380.78;5075877;27;45550;-76
2023/05/17 05:43:52;;;;;;;;;17.25;15.50;;;;;13.85;100.00;102374.56;5063026;28;47646;-76
2023/05/17 05:46:17;;;;;;;;;23.00;15.00;;;;;13.90;100.00;102385.25;5056010;28;67646;-77
2023/05/17 05:48:43;;;;;;;;;10.33;10.00;;;;;13.90;100.00;102382.63;5069796;28;64320;-77
2023/05/17 05:51:09;;;;;;;;;17.00;13.67;;;;;13.93;100.00;102392.41;5071495;28;45493;-76
2023/05/17 05:53:35;;;;;;;;;17.33;15.67;;;;;13.93;100.00;102393.31;5065123;27;45617;-77
2023/05/17 05:56:00;;;;;;;;;20.00;11.00;;;;;13.96;100.00;102384.53;5069917;28;45505;-77
2023/05/17 05:58:25;;;;;;;;;15.00;11.00;;;;;13.97;100.00;102395.19;5052209;28;64245;-76
2023/05/17 06:00:51;;;;;;;;;14.67;14.67;;;;;13.99;100.00;102401.41;5071756;27;52651;-76
2023/05/17 06:03:16;;;;;;;;;15.33;11.33;;;;;14.01;100.00;102406.75;5072816;28;50982;-76
2023/05/17 06:05:42;;;;;;;;;16.50;16.00;;;;;14.02;100.00;102408.56;5060698;28;64719;-77
2023/05/17 06:08:07;;;;;;;;;21.00;14.67;;;;;14.05;100.00;102414.81;5068672;28;45664;-76
2023/05/17 06:10:32;;;;;;;;;21.75;14.00;;;;;14.06;100.00;102413.06;5066520;28;61527;-76
2023/05/17 06:12:57;;;;;;;;;19.75;13.50;;;;;14.09;100.00;102416.69;5070690;27;67083;-77
2023/05/17 06:15:23;;;;;;;;;16.67;12.33;;;;;14.10;100.00;102423.78;5057227;28;67934;-77
2023/05/17 06:17:48;;;;;;;;;13.00;11.00;;;;;14.14;100.00;102425.66;5057057;28;45229;-77
2023/05/17 06:20:15;;;;;;;;;14.33;11.00;;;;;14.14;100.00;102416.78;5074940;28;58365;-78
2023/05/17 06:22:41;;;;;;;;;15.33;10.33;;;;;14.19;100.00;102431.06;5064869;28;46282;-78
2023/05/17 06:25:07;;;;;;;;;15.67;12.67;;;;;14.22;100.00;102425.84;5068103;27;45377;-77
2023/05/17 06:27:35;;;;;;;;;15.33;10.33;;;;;14.23;100.00;102426.75;5059682;28;45381;-78
2023/05/17 06:30:00;;;;;;;;;16.00;10.67;;;;;14.26;100.00;102429.44;5057731;28;45537;-78
2023/05/17 06:32:26;;;;;;;;;17.67;13.33;;;;;14.30;100.00;102431.31;5060771;28;47398;-78
2023/05/17 06:34:51;;;;;;;;;14.67;8.67;;;;;14.30;100.00;102436.63;5067765;28;45197;-77
2023/05/17 06:37:16;;;;;;;;;8.33;8.00;;;;;14.34;100.00;102443.81;5061617;28;53777;-75
2023/05/17 06:39:42;;;;;;;;;13.00;11.67;;;;;14.37;100.00;102442.09;5066923;28;45333;-74
2023/05/17 06:42:07;;;;;;;;;15.00;14.00;;;;;14.36;100.00;102447.38;5055850;28;69022;-75
2023/05/17 06:44:32;;;;;;;;;15.33;12.00;;;;;14.31;100.00;102443.72;5058058;28;67122;-75
2023/05/17 06:46:59;;;;;;;;;12.00;9.67;;;;;14.21;100.00;102452.34;5069945;28;45367;-77
2023/05/17 06:49:25;;;;;;;;;13.00;10.33;;;;;14.13;100.00;102447.78;5068358;28;45423;-75
2023/05/17 06:51:50;;;;;;;;;13.33;10.67;;;;;14.06;100.00;102447.59;5055727;28;46515;-73
2023/05/17 06:54:18;;;;;;;;;12.00;8.00;;;;;14.00;100.00;102450.13;5068636;28;45324;-74
2023/05/17 06:56:44;;;;;;;;;12.33;7.67;;;;;13.94;100.00;102445.56;5067178;28;45350;-74
2023/05/17 06:59:09;;;;;;;;;11.75;11.75;;;;;13.91;100.00;102442.84;5074774;28;45408;-73
2023/05/17 07:01:35;;;;;;;;;14.67;12.67;;;;;13.89;100.00;102450.75;5048400;28;46386;-73
2023/05/17 07:04:00;;;;;;;;;4.00;4.00;;;;;13.87;100.00;102457.81;5130368;22;45380;-74
2023/05/17 07:06:25;;;;;;;;;12.00;7.33;;;;;13.84;100.00;102448.84;5034037;28;65658;-74
2023/05/17 07:08:50;;;;;;;;;8.67;8.67;;;;;13.84;100.00;102451.50;5029789;28;59114;-74
2023/05/17 07:11:16;;;;;;;;;13.67;7.67;;;;;13.82;100.00;102455.91;5025395;28;67334;-74
2023/05/17 07:13:41;;;;;;;;;7.00;7.00;;;;;13.86;100.00;102455.13;5022087;28;67994;-74
2023/05/17 07:16:08;;;;;;;;;7.67;7.00;;;;;13.93;100.00;102458.81;5025294;28;45397;-74
2023/05/17 07:18:33;;;;;;;;;8.67;6.00;;;;;13.94;100.00;102456.19;5021105;28;46288;-74
2023/05/17 07:20:58;;;;;;;;;9.33;6.00;;;;;13.99;100.00;102459.84;5024959;28;68275;-73
2023/05/17 07:23:24;;;;;;;;;11.67;8.33;;;;;14.02;100.00;102459.03;5025433;28;45626;-73
2023/05/17 07:25:49;;;;;;;;;8.00;7.00;;;;;14.02;100.00;102462.59;5022338;28;52239;-73
2023/05/17 07:28:15;;;;;;;;;10.67;6.00;;;;;14.03;100.00;102463.47;5027386;28;45426;-74
2023/05/17 07:30:40;;;;;;;;;13.00;11.00;;;;;14.05;100.00;102462.63;5025864;28;46506;-74
2023/05/17 07:33:06;;;;;;;;;7.00;6.00;;;;;14.11;100.00;102469.84;5028113;28;67027;-74
2023/05/17 07:35:31;;;;;;;;;7.00;7.00;;;;;14.12;100.00;102469.00;5031565;28;45398;-74
2023/05/17 07:37:56;;;;;;;;;8.00;7.67;;;;;14.13;100.00;102471.69;5032954;28;54309;-74
2023/05/17 07:40:22;;;;;;;;;11.00;7.00;;;;;14.20;100.00;102478.03;5032960;28;65443;-74
2023/05/17 07:42:47;;;;;;;;;9.00;5.67;;;;;14.25;100.00;102473.72;5025420;28;45407;-73
2023/05/17 07:45:13;;;;;;;;;6.00;6.00;;;;;14.31;100.00;102487.13;5027402;28;45410;-74
2023/05/17 07:47:38;;;;;;;;;9.00;6.33;;;;;14.35;100.00;102475.72;5021077;28;51137;-74
2023/05/17 07:50:04;;;;;;;;;12.33;8.00;;;;;14.40;100.00;102473.16;5024063;28;67297;-74
2023/05/17 07:52:29;;;;;;;;;10.33;6.33;;;;;14.39;100.00;102477.59;5029591;28;45551;-74
2023/05/17 07:54:54;;;;;;;;;11.00;8.00;;;;;14.37;100.00;102483.72;5025545;28;45451;-74
2023/05/17 07:57:20;;;;;;;;;15.00;9.33;;;;;14.38;100.00;102485.50;5035158;28;46519;-73
2023/05/17 07:59:45;;;;;;;;;13.00;9.00;;;;;14.37;100.00;102484.59;5032475;28;61796;-74
2023/05/17 08:02:10;;;;;;;;;14.00;8.00;;;;;14.36;100.00;102489.91;5015824;28;57758;-74
2023/05/17 08:04:36;;;;;;;;;8.00;8.00;;;;;14.35;100.00;102482.78;5004605;28;50493;-73
2023/05/17 08:07:01;;;;;;;;;14.33;9.00;;;;;14.44;100.00;102492.75;5012972;28;45354;-73
2023/05/17 08:09:27;;;;;;;;;6.00;4.33;;;;;14.55;100.00;102478.84;5003750;28;46567;-73
2023/05/17 08:11:52;;;;;;;;;8.67;6.00;;;;;14.66;100.00;102481.72;5001859;28;66784;-74
2023/05/17 08:14:20;;;;;;;;;11.33;7.00;;;;;14.72;100.00;102483.59;4997910;28;60923;-73
2023/05/17 08:16:46;;;;;;;;;9.00;8.00;;;;;14.71;100.00;102487.13;5008089;28;45393;-73
2023/05/17 08:19:12;;;;;;;;;8.00;7.33;;;;;14.66;100.00;102484.38;5008266;28;46683;-75
2023/05/17 08:21:38;;;;;;;;;9.33;7.00;;;;;14.58;100.00;102491.28;5007586;28;45296;-75
2023/05/17 08:24:04;;;;;;;;;8.33;6.00;;;;;14.56;100.00;102485.94;4991965;28;45352;-77
2023/05/17 08:26:29;;;;;;;;;8.00;7.33;;;;;14.60;100.00;102485.16;5003813;28;45353;-76
2023/05/17 08:28:55;;;;;;;;;6.33;5.33;;;;;14.73;100.00;102482.72;5004354;28;46781;-75
2023/05/17 08:31:20;;;;;;;;;8.67;8.00;;;;;14.79;100.00;102474.88;5011411;28;45460;-77
2023/05/17 08:33:45;;;;;;;;;8.33;7.33;;;;;14.91;100.00;102472.44;5005363;28;57882;-77
2023/05/17 08:36:11;;;;;;;;;9.00;7.67;;;;;15.02;100.00;102472.66;5010849;28;57930;-77
2023/05/17 08:38:36;;;;;;;;;6.33;6.33;;;;;15.09;100.00;102471.91;5009229;28;67172;-76
2023/05/17 08:41:02;;;;;;;;;8.00;8.00;;;;;15.14;100.00;102473.81;5005965;28;45419;-79
2023/05/17 08:43:29;;;;;;;;;6.33;5.67;;;;;15.19;100.00;102481.88;5005955;28;46412;-79
2023/05/17 08:45:56;;;;;;;;;7.33;7.00;;;;;15.22;100.00;102467.72;5005757;28;45468;-78
2023/05/17 08:48:23;;;;;;;;;7.00;6.00;;;;;15.28;100.00;102465.16;5010416;28;47692;-79
2023/05/17 08:50:53;;;;;;;;;9.67;5.67;;;;;15.34;100.00;102459.94;5014344;28;45402;-79
2023/05/17 08:53:18;;;;;;;;;5.67;5.00;;;;;15.43;100.00;102460.09;4979110;28;45549;-81
2023/05/17 08:55:49;;;;;;;;;6.33;4.00;;;;;15.52;100.00;102460.25;5007560;28;46051;-80
2023/05/17 08:58:25;;;;;;;;;4.67;4.00;;;;;15.60;100.00;102449.72;4977165;28;47616;-79
2023/05/17 09:00:50;;;;;;;;;8.00;7.00;;;;;15.65;100.00;102442.75;4978905;28;45544;-79
2023/05/17 09:03:17;;;;;;;;;5.33;4.00;;;;;15.69;100.00;102440.16;5008021;28;59467;-79
2023/05/17 09:05:44;;;;;;;;;5.00;3.67;;;;;15.76;100.00;102450.91;5031106;28;45520;-79
2023/05/17 09:08:12;;;;;;;;;6.67;5.67;;;;;15.82;100.00;102440.34;5015459;28;46459;-79
2023/05/17 09:10:41;;;;;;;;;3.33;3.00;;;;;15.88;100.00;102449.34;5034893;28;45496;-79
2023/05/17 09:13:06;;;;;;;;;4.00;4.00;;;;;15.95;100.00;102440.56;5022116;28;45389;-80
2023/05/17 09:15:33;;;;;;;;;8.00;5.00;;;;;16.02;100.00;102454.84;5031516;28;45504;-79
2023/05/17 09:17:58;;;;;;;;;5.00;4.00;;;;;16.08;100.00;102454.94;5034316;28;46549;-78
2023/05/17 09:20:32;;;;;;;;;5.00;5.00;;;;;16.15;100.00;102440.84;5026324;28;45314;-79
2023/05/17 09:22:58;;;;;;;;;7.00;5.00;;;;;16.21;100.00;102440.94;5031826;28;45438;-80
2023/05/17 09:25:24;;;;;;;;;4.67;3.67;;;;;16.29;100.00;102437.44;5031010;28;45516;-78
2023/05/17 09:27:53;;;;;;;;;7.00;4.00;;;;;16.36;100.00;102442.00;5035030;28;46941;-80
2023/05/17 09:30:18;;;;;;;;;6.33;4.33;;;;;16.42;100.00;102447.41;5015954;28;45641;-77
2023/05/17 09:32:46;;;;;;;;;5.00;3.33;;;;;16.45;100.00;102436.78;5036567;28;45845;-79
2023/05/17 09:35:12;;;;;;;;;6.33;5.00;;;;;16.52;99.35;102443.09;5018616;28;45379;-79
2023/05/17 09:37:38;;;;;;;;;5.00;4.00;;;;;16.55;98.82;102433.34;5026355;28;46555;-79
2023/05/17 09:40:05;;;;;;;;;4.67;3.00;;;;;16.63;98.26;102441.47;5032125;28;45371;-78
2023/05/17 09:42:35;;;;;;;;;4.33;3.00;;;;;16.68;97.00;102439.75;5028721;28;45312;-79
2023/05/17 09:45:01;;;;;;;;;7.00;5.00;;;;;16.69;96.67;102437.06;5028800;28;45460;-78
2023/05/17 09:47:28;;;;;;;;;6.00;5.00;;;;;16.70;95.35;102444.19;5026632;28;47588;-79
2023/05/17 09:49:59;;;;;;;;;5.00;3.33;;;;;16.76;95.78;102449.63;5035986;28;45249;-78
2023/05/17 09:52:25;;;;;;;;;8.67;5.33;;;;;16.82;96.34;102437.25;5034965;28;45338;-78
2023/05/17 09:54:55;;;;;;;;;6.00;6.00;;;;;16.91;96.37;102424.00;5028106;28;45158;-78
2023/05/17 09:57:21;;;;;;;;;33.50;30.50;;;;;16.96;96.66;102430.28;5035911;28;47167;-79
2023/05/17 09:59:47;;;;;;;;;9.00;9.00;;;;;17.00;94.65;102421.44;5030638;28;45367;-80
2023/05/17 10:02:19;;;;;;;;;32.75;28.00;;;;;17.06;94.45;102434.84;5017906;28;45639;-79
2023/05/17 10:04:46;;;;;;;;;239.75;187.25;;;;;17.14;93.94;102435.78;5015613;28;45670;-80
2023/05/17 10:07:12;;;;;;;;;65.50;52.00;;;;;17.19;94.22;102426.06;4998740;28;47484;-78
2023/05/17 10:09:38;;;;;;;;;54.75;41.50;;;;;17.25;93.66;102427.88;5011568;28;65820;-79
2023/05/17 10:12:04;;;;;;;;;21.33;20.00;;;;;17.32;92.32;102431.53;5011092;28;45728;-78
2023/05/17 10:14:31;;;;;;;;;15.33;14.67;;;;;17.37;92.36;102427.13;5010824;28;45494;-78
2023/05/17 10:16:56;;;;;;;;;31.75;28.75;;;;;17.42;91.78;102428.06;4984835;28;47360;-78
2023/05/17 10:19:22;;;;;;;;;39.50;34.00;;;;;17.42;90.79;102412.94;4999533;28;45298;-79
2023/05/17 10:21:49;;;;;;;;;79.25;65.50;;;;;17.45;90.81;102418.28;5001476;28;45252;-78
2023/05/17 10:24:15;;;;;;;;;18.67;16.00;;;;;17.51;90.11;102412.09;5017607;28;45575;-79
2023/05/17 10:26:40;;;;;;;;;19.33;15.67;;;;;17.52;90.02;102420.13;5017699;28;46454;-79
2023/05/17 10:29:06;;;;;;;;;8.00;8.00;;;;;17.55;89.75;102408.56;5006162;28;45510;-78
2023/05/17 10:31:33;;;;;;;;;7.33;6.00;;;;;17.61;90.00;102413.06;5012076;28;45317;-76
2023/05/17 10:34:03;;;;;;;;;5.33;4.33;;;;;17.69;89.33;102403.31;5008348;28;45624;-77
2023/05/17 10:36:28;;;;;;;;;4.33;3.00;;;;;17.74;88.15;102397.16;5005746;28;46068;-76
2023/05/17 10:38:54;;;;;;;;;35.75;31.50;;;;;17.79;86.89;102402.53;5001589;28;68594;-78
2023/05/17 10:41:25;;;;;;;;;133.75;122.75;;;;;17.83;86.75;102398.97;5000828;28;45322;-78
2023/05/17 10:43:52;;;;;;;;;193.25;159.25;;;;;17.90;86.59;102386.56;4999744;28;45241;-75
2023/05/17 10:46:21;;;;;;;;;298.25;241.25;;;;;17.97;86.75;102393.72;5008732;28;46549;-75
2023/05/17 10:48:49;;;;;;;;;11.67;9.00;;;;;18.08;85.36;102380.41;4999967;28;45420;-80
2023/05/17 10:51:23;;;;;;;;;66.25;51.00;;;;;18.21;85.53;102387.59;5002357;28;45377;-81
2023/05/17 10:54:08;;;;;;;;;45.25;36.50;;;;;18.42;84.22;102386.78;5015785;28;46915;-81
2023/05/17 10:56:34;;;;;;;;;105.25;95.50;;;;;18.59;82.47;102377.94;5016710;28;47267;-78
2023/05/17 10:59:25;;;;;;;;;153.25;137.75;;;;;18.84;81.93;102381.56;5012304;28;45680;-82
2023/05/17 11:01:53;;;;;;;;;125.25;113.00;;;;;19.03;81.08;102370.91;5012750;28;45528;-81
2023/05/17 11:04:43;;;;;;;;;28.50;24.50;;;;;19.19;80.11;102377.16;5010350;28;45651;-86
2023/05/17 11:07:18;;;;;;;;;8.00;8.00;;;;;19.31;81.66;102374.47;5022169;28;45759;-84
2023/05/17 11:09:44;;;;;;;;;4.33;3.33;;;;;19.51;81.49;102379.81;5033871;28;45668;-83